createdAt,value
2022-09-26T00:02:18.361Z,98242.10
2022-09-26T00:05:23.952Z,98240.88
2022-09-26T00:08:29.268Z,98237.02
2022-09-26T00:11:35.626Z,98242.13
2022-09-26T00:14:41.138Z,98237.80
2022-09-26T00:17:46.593Z,98232.64
2022-09-26T00:20:52.016Z,98230.05
2022-09-26T00:23:58.700Z,98226.45
2022-09-26T00:27:04.116Z,98218.88
2022-09-26T00:30:11.651Z,98215.07
2022-09-26T00:33:17.019Z,98212.25
2022-09-26T00:36:29.811Z,98210.66
2022-09-26T00:39:42.276Z,98210.33
2022-09-26T00:42:47.827Z,98203.28
2022-09-26T00:45:53.658Z,98192.91
2022-09-26T00:49:15.218Z,98188.38
2022-09-26T00:52:24.060Z,98180.66
2022-09-26T00:55:35.168Z,98174.41
2022-09-26T00:58:49.205Z,98172.65
2022-09-26T01:01:56.990Z,98165.42
2022-09-26T01:05:03.187Z,98164.21
2022-09-26T01:08:09.014Z,98166.77
2022-09-26T01:11:17.191Z,98173.02
2022-09-26T01:14:23.309Z,98173.33
2022-09-26T01:17:29.169Z,98176.22
2022-09-26T01:20:44.463Z,98178.20
2022-09-26T01:24:11.638Z,98177.36
2022-09-26T01:27:44.390Z,98171.11
2022-09-26T01:30:54.231Z,98169.17
2022-09-26T01:34:05.951Z,98167.98
2022-09-26T01:37:21.953Z,98164.48
2022-09-26T01:40:31.615Z,98159.23
2022-09-26T01:43:48.913Z,98158.98
2022-09-26T01:46:58.476Z,98153.15
2022-09-26T01:50:08.413Z,98154.12
2022-09-26T01:53:20.218Z,98148.25
2022-09-26T01:56:29.456Z,98146.15
2022-09-26T01:59:40.384Z,98142.75
2022-09-26T02:02:47.838Z,98142.67
2022-09-26T02:05:57.361Z,98139.52
2022-09-26T02:09:10.521Z,98136.84
2022-09-26T02:12:22.584Z,98135.20
2022-09-26T02:15:32.421Z,98133.73
2022-09-26T02:18:42.152Z,98134.05
2022-09-26T02:21:47.989Z,98132.35
2022-09-26T02:24:53.825Z,98129.91
2022-09-26T02:27:59.551Z,98127.25
2022-09-26T02:31:08.469Z,98128.55
2022-09-26T02:34:14.392Z,98127.55
2022-09-26T02:37:21.997Z,98121.86
2022-09-26T02:40:35.405Z,98122.31
2022-09-26T02:43:56.857Z,98118.33
2022-09-26T02:47:16.392Z,98119.41
2022-09-26T02:50:34.565Z,98121.39
2022-09-26T02:53:58.671Z,98116.65
2022-09-26T02:57:22.498Z,98109.36
2022-09-26T03:00:33.872Z,98106.48
2022-09-26T03:03:45.505Z,98110.33
2022-09-26T03:06:55.813Z,98105.92
2022-09-26T03:10:04.710Z,98097.92
2022-09-26T03:13:14.370Z,98092.28
2022-09-26T03:16:21.204Z,98089.94
2022-09-26T03:19:32.554Z,98089.09
2022-09-26T03:22:38.253Z,98089.38
2022-09-26T03:25:44.572Z,98090.01
2022-09-26T03:28:50.325Z,98083.21
2022-09-26T03:31:55.725Z,98076.93
2022-09-26T03:35:01.184Z,98073.88
2022-09-26T03:38:08.310Z,98068.08
2022-09-26T03:41:16.927Z,98065.15
2022-09-26T03:44:22.895Z,98065.98
2022-09-26T03:47:28.305Z,98060.92
2022-09-26T03:50:34.765Z,98058.11
2022-09-26T03:53:42.057Z,98053.99
2022-09-26T03:56:47.325Z,98050.48
2022-09-26T03:59:52.633Z,98052.48
2022-09-26T04:03:02.822Z,98052.92
2022-09-26T04:06:10.290Z,98048.20
2022-09-26T04:09:17.730Z,98044.50
2022-09-26T04:12:23.654Z,98046.77
2022-09-26T04:15:30.019Z,98045.55
2022-09-26T04:18:36.398Z,98046.38
2022-09-26T04:21:42.378Z,98047.98
2022-09-26T04:24:47.691Z,98050.86
2022-09-26T04:27:52.978Z,98049.52
2022-09-26T04:31:01.509Z,98050.08
2022-09-26T04:34:07.635Z,98048.52
2022-09-26T04:37:13.420Z,98046.80
2022-09-26T04:40:18.887Z,98046.22
2022-09-26T04:43:24.389Z,98043.55
2022-09-26T04:46:31.442Z,98047.45
2022-09-26T04:49:36.954Z,98047.89
2022-09-26T04:52:42.971Z,98045.55
2022-09-26T04:55:49.313Z,98038.43
2022-09-26T04:58:56.643Z,98037.23
2022-09-26T05:02:02.699Z,98035.34
2022-09-26T05:05:09.697Z,98031.11
2022-09-26T05:08:15.657Z,98030.91
2022-09-26T05:11:21.619Z,98030.31
2022-09-26T05:14:27.326Z,98034.08
2022-09-26T05:17:33.180Z,98028.66
2022-09-26T05:20:38.514Z,98016.35
2022-09-26T05:24:01.640Z,98015.92
2022-09-26T05:27:08.325Z,98018.61
2022-09-26T05:30:14.121Z,98011.99
2022-09-26T05:33:20.303Z,98010.42
2022-09-26T05:36:25.847Z,98010.13
2022-09-26T05:39:48.730Z,98005.19
2022-09-26T05:43:00.384Z,98008.58
2022-09-26T05:46:07.878Z,98010.31
2022-09-26T05:49:14.854Z,98009.26
2022-09-26T05:52:22.408Z,98010.52
2022-09-26T05:55:28.461Z,98009.48
2022-09-26T05:58:35.454Z,98005.65
2022-09-26T06:01:40.832Z,98005.28
2022-09-26T06:04:46.240Z,98011.20
2022-09-26T06:07:51.971Z,98009.52
2022-09-26T06:11:01.409Z,98007.85
2022-09-26T06:14:08.392Z,98002.56
2022-09-26T06:17:13.741Z,98003.86
2022-09-26T06:20:19.390Z,98002.56
2022-09-26T06:23:24.773Z,98002.91
2022-09-26T06:26:30.196Z,97999.93
2022-09-26T06:29:35.524Z,98003.57
2022-09-26T06:32:40.903Z,98000.98
2022-09-26T06:35:46.200Z,98000.23
2022-09-26T06:38:52.131Z,98003.49
2022-09-26T06:41:57.448Z,97997.17
2022-09-26T06:45:02.730Z,97991.47
2022-09-26T06:48:08.148Z,97993.11
2022-09-26T06:51:14.528Z,97995.28
2022-09-26T06:54:19.953Z,97992.48
2022-09-26T06:57:25.236Z,97988.71
2022-09-26T07:00:30.736Z,97988.91
2022-09-26T07:03:38.631Z,97988.52
2022-09-26T07:06:47.175Z,97984.66
2022-09-26T07:09:52.482Z,97988.80
2022-09-26T07:13:03.272Z,97986.95
2022-09-26T07:16:09.199Z,97985.09
2022-09-26T07:19:16.230Z,97985.08
2022-09-26T07:22:21.659Z,97985.61
2022-09-26T07:25:27.025Z,97988.92
2022-09-26T07:28:32.458Z,97986.17
2022-09-26T07:31:38.169Z,97982.55
2022-09-26T07:34:44.017Z,97986.65
2022-09-26T07:37:53.817Z,97992.38
2022-09-26T07:41:00.911Z,97997.55
2022-09-26T07:47:52.522Z,97996.63
2022-09-26T07:51:00.186Z,97996.79
2022-09-26T07:54:05.809Z,97995.73
2022-09-26T07:57:11.891Z,97994.35
2022-09-26T08:00:21.370Z,97994.55
2022-09-26T08:03:28.593Z,97991.64
2022-09-26T08:06:36.784Z,97993.11
2022-09-26T08:09:42.110Z,97988.32
2022-09-26T08:12:48.177Z,97986.90
2022-09-26T08:15:54.350Z,97981.17
2022-09-26T08:18:58.875Z,97978.20
2022-09-26T08:22:07.538Z,97971.71
2022-09-26T08:25:13.424Z,97973.30
2022-09-26T08:28:18.842Z,97971.66
2022-09-26T08:31:24.191Z,97972.20
2022-09-26T08:34:32.276Z,97971.12
2022-09-26T08:37:37.598Z,97971.77
2022-09-26T08:40:51.487Z,97970.27
2022-09-26T08:44:08.310Z,97966.72
2022-09-26T08:47:29.679Z,97971.63
2022-09-26T08:50:46.393Z,97970.48
2022-09-26T08:53:58.489Z,97970.75
2022-09-26T08:57:08.557Z,97970.61
2022-09-26T09:00:22.606Z,97968.46
2022-09-26T09:03:33.463Z,97970.64
2022-09-26T09:06:39.237Z,97973.72
2022-09-26T09:09:44.646Z,97974.00
2022-09-26T09:13:01.997Z,97973.56
2022-09-26T09:16:20.078Z,97971.17
2022-09-26T09:19:33.863Z,97972.06
2022-09-26T09:22:53.563Z,97974.55
2022-09-26T09:29:56.722Z,97974.83
2022-09-26T09:33:05.402Z,97982.34
2022-09-26T09:36:15.044Z,97982.41
2022-09-26T09:39:27.570Z,97980.41
2022-09-26T09:42:41.857Z,97974.77
2022-09-26T09:45:51.589Z,97974.92
2022-09-26T09:49:01.470Z,97975.09
2022-09-26T09:52:20.479Z,97975.13
2022-09-26T09:55:39.832Z,97979.05
2022-09-26T09:59:03.748Z,97981.73
2022-09-26T10:02:22.079Z,97985.38
2022-09-26T10:05:36.828Z,97987.92
2022-09-26T10:08:43.301Z,97988.66
2022-09-26T10:11:52.500Z,97984.61
2022-09-26T10:15:03.248Z,97982.05
2022-09-26T10:18:29.550Z,97981.77
2022-09-26T10:21:40.848Z,97985.17
2022-09-26T10:24:48.873Z,97985.61
2022-09-26T10:27:57.468Z,97985.81
2022-09-26T10:31:10.557Z,97986.73
2022-09-26T10:34:28.010Z,97982.83
2022-09-26T10:37:33.856Z,97982.37
2022-09-26T10:40:46.178Z,97981.10
2022-09-26T10:43:56.492Z,97972.45
2022-09-26T10:47:08.309Z,97970.15
2022-09-26T10:50:16.754Z,97971.55
2022-09-26T10:53:24.185Z,97964.10
2022-09-26T10:56:36.741Z,97961.45
2022-09-26T10:59:43.549Z,97956.55
2022-09-26T11:02:52.304Z,97954.00
2022-09-26T11:05:57.650Z,97951.23
2022-09-26T11:09:04.750Z,97950.52
2022-09-26T11:12:29.196Z,97949.45
2022-09-26T11:15:34.644Z,97947.52
2022-09-26T11:18:49.441Z,97945.84
2022-09-26T11:22:05.755Z,97949.90
2022-09-26T11:25:19.628Z,97953.95
2022-09-26T11:28:31.536Z,97946.19
2022-09-26T11:31:41.037Z,97941.04
2022-09-26T11:34:47.283Z,97940.05
2022-09-26T11:38:09.258Z,97936.95
2022-09-26T11:41:40.954Z,97930.84
2022-09-26T11:45:06.109Z,97923.58
2022-09-26T11:48:32.936Z,97926.19
2022-09-26T11:51:50.928Z,97922.26
2022-09-26T11:55:11.837Z,97919.64
2022-09-26T11:58:28.025Z,97915.61
2022-09-26T12:01:44.178Z,97906.64
2022-09-26T12:05:02.646Z,97905.02
2022-09-26T12:08:20.696Z,97902.83
2022-09-26T12:11:36.953Z,97900.02
2022-09-26T12:14:54.202Z,97894.23
2022-09-26T12:18:13.820Z,97898.06
2022-09-26T12:21:32.182Z,97898.84
2022-09-26T12:24:46.260Z,97898.80
2022-09-26T12:28:02.124Z,97894.79
2022-09-26T12:31:19.780Z,97891.03
2022-09-26T12:34:45.128Z,97889.98
2022-09-26T12:38:07.289Z,97887.81
2022-09-26T12:41:39.483Z,97886.48
2022-09-26T12:45:11.831Z,97883.15
2022-09-26T12:48:38.256Z,97879.78
2022-09-26T12:51:48.119Z,97873.23
2022-09-26T12:55:07.734Z,97874.61
2022-09-26T12:58:32.338Z,97875.50
2022-09-26T13:02:00.733Z,97874.06
2022-09-26T13:05:22.415Z,97873.61
2022-09-26T13:08:36.878Z,97877.26
2022-09-26T13:11:55.084Z,97879.80
2022-09-26T13:15:17.369Z,97875.49
2022-09-26T13:18:33.161Z,97877.11
2022-09-26T13:21:49.789Z,97876.30
2022-09-26T13:25:00.445Z,97876.91
2022-09-26T13:28:11.512Z,97876.89
2022-09-26T13:31:22.754Z,97873.75
2022-09-26T13:34:35.930Z,97874.52
2022-09-26T13:37:50.501Z,97871.53
2022-09-26T13:41:05.067Z,97867.39
2022-09-26T13:44:23.547Z,97862.05
2022-09-26T13:47:39.981Z,97858.96
2022-09-26T13:50:54.836Z,97855.14
2022-09-26T13:54:10.665Z,97848.58
2022-09-26T13:57:31.901Z,97846.42
2022-09-26T14:00:53.501Z,97842.70
2022-09-26T14:04:18.982Z,97839.77
2022-09-26T14:08:05.329Z,97838.05
2022-09-26T14:11:24.521Z,97838.27
2022-09-26T14:14:44.317Z,97837.12
2022-09-26T14:18:16.434Z,97835.44
2022-09-26T14:21:35.123Z,97836.88
2022-09-26T14:24:42.370Z,97842.95
2022-09-26T14:27:49.430Z,97842.95
2022-09-26T14:31:22.267Z,97841.02
2022-09-26T14:34:30.497Z,97843.02
2022-09-26T14:37:42.577Z,97841.41
2022-09-26T14:40:57.823Z,97843.40
2022-09-26T14:44:05.461Z,97839.54
2022-09-26T14:47:17.266Z,97836.77
2022-09-26T14:50:35.482Z,97838.40
2022-09-26T14:53:45.229Z,97838.36
2022-09-26T14:56:59.578Z,97837.99
2022-09-26T15:00:35.053Z,97832.96
2022-09-26T15:03:41.216Z,97834.04
2022-09-26T15:06:52.058Z,97832.46
2022-09-26T15:10:03.207Z,97831.10
2022-09-26T15:13:24.170Z,97825.42
2022-09-26T15:16:37.612Z,97825.33
2022-09-26T15:19:50.329Z,97821.74
2022-09-26T15:22:57.458Z,97818.76
2022-09-26T15:26:03.772Z,97820.81
2022-09-26T15:29:12.144Z,97823.30
2022-09-26T15:32:25.865Z,97820.52
2022-09-26T15:35:31.959Z,97822.67
2022-09-26T15:38:35.954Z,97825.93
2022-09-26T15:42:04.285Z,97825.79
2022-09-26T15:45:26.279Z,97817.43
2022-09-26T15:48:33.314Z,97813.96
2022-09-26T15:51:40.773Z,97816.45
2022-09-26T15:54:46.443Z,97813.48
2022-09-26T15:57:55.941Z,97813.39
2022-09-26T16:01:01.782Z,97814.60
2022-09-26T16:04:14.884Z,97813.02
2022-09-26T16:07:25.008Z,97808.45
2022-09-26T16:10:35.640Z,97813.13
2022-09-26T16:13:46.288Z,97814.19
2022-09-26T16:16:51.732Z,97815.12
2022-09-26T16:19:58.970Z,97813.07
2022-09-26T16:23:05.872Z,97811.83
2022-09-26T16:26:32.430Z,97810.48
2022-09-26T16:29:39.089Z,97815.81
2022-09-26T16:32:44.539Z,97815.36
2022-09-26T16:35:51.633Z,97815.27
2022-09-26T16:39:02.739Z,97824.10
2022-09-26T16:42:17.873Z,97821.89
2022-09-26T16:45:23.502Z,97820.80
2022-09-26T16:48:37.604Z,97819.08
2022-09-26T16:51:42.939Z,97821.25
2022-09-26T16:54:48.713Z,97819.25
2022-09-26T16:57:57.849Z,97819.34
2022-09-26T17:01:20.632Z,97814.10
2022-09-26T17:04:31.312Z,97817.23
2022-09-26T17:07:36.705Z,97815.92
2022-09-26T17:10:44.061Z,97813.40
2022-09-26T17:13:51.697Z,97815.40
2022-09-26T17:16:58.402Z,97812.54
2022-09-26T17:20:05.140Z,97813.41
2022-09-26T17:23:34.861Z,97810.50
2022-09-26T17:26:37.723Z,97809.98
2022-09-26T17:29:48.593Z,97810.81
2022-09-26T17:32:55.265Z,97814.23
2022-09-26T17:36:00.802Z,97812.18
2022-09-26T17:39:14.049Z,97815.71
2022-09-26T17:42:20.394Z,97820.19
2022-09-26T17:45:30.337Z,97825.98
2022-09-26T17:48:35.911Z,97823.20
2022-09-26T17:51:42.867Z,97819.48
2022-09-26T17:54:52.232Z,97820.18
2022-09-26T17:57:58.503Z,97811.67
2022-09-26T18:01:04.519Z,97816.24
2022-09-26T18:04:17.933Z,97819.18
2022-09-26T18:07:24.474Z,97821.08
2022-09-26T18:10:33.802Z,97820.83
2022-09-26T18:13:44.826Z,97820.52
2022-09-26T18:16:50.257Z,97818.07
2022-09-26T18:19:55.567Z,97815.38
2022-09-26T18:23:01.159Z,97814.32
2022-09-26T18:26:08.229Z,97814.06
2022-09-26T18:29:16.908Z,97807.04
2022-09-26T18:32:29.092Z,97802.89
2022-09-26T18:35:34.604Z,97805.09
2022-09-26T18:38:40.054Z,97807.88
2022-09-26T18:41:46.237Z,97806.50
2022-09-26T18:44:51.319Z,97809.07
2022-09-26T18:47:57.133Z,97808.04
2022-09-26T18:51:03.407Z,97808.54
2022-09-26T18:54:13.423Z,97810.52
2022-09-26T18:57:35.491Z,97815.84
2022-09-26T19:00:41.102Z,97819.45
2022-09-26T19:03:48.579Z,97815.99
2022-09-26T19:07:00.885Z,97817.21
2022-09-26T19:10:07.918Z,97817.70
2022-09-26T19:13:13.253Z,97815.27
2022-09-26T19:16:19.671Z,97815.13
2022-09-26T19:19:26.188Z,97812.48
2022-09-26T19:22:31.666Z,97811.75
2022-09-26T19:25:36.981Z,97814.44
2022-09-26T19:28:42.283Z,97817.08
2022-09-26T19:31:47.743Z,97816.41
2022-09-26T19:34:56.906Z,97812.11
2022-09-26T19:38:03.813Z,97809.26
2022-09-26T19:41:09.272Z,97807.17
2022-09-26T19:44:14.823Z,97806.38
2022-09-26T19:47:22.481Z,97806.11
2022-09-26T19:50:29.128Z,97806.20
2022-09-26T19:53:37.460Z,97808.56
2022-09-26T19:56:43.235Z,97809.14
2022-09-26T19:59:49.398Z,97813.58
2022-09-26T20:02:54.496Z,97815.67
2022-09-26T20:06:00.096Z,97821.24
2022-09-26T20:09:07.521Z,97821.52
2022-09-26T20:12:13.488Z,97819.45
2022-09-26T20:15:21.147Z,97818.23
2022-09-26T20:18:26.721Z,97820.69
2022-09-26T20:21:33.625Z,97823.27
2022-09-26T20:24:42.133Z,97822.88
2022-09-26T20:27:47.430Z,97826.83
2022-09-26T20:30:52.968Z,97821.65
2022-09-26T20:34:00.186Z,97823.05
2022-09-26T20:37:05.775Z,97823.94
2022-09-26T20:40:18.237Z,97820.49
2022-09-26T20:43:31.353Z,97822.77
2022-09-26T20:46:40.556Z,97827.68
2022-09-26T20:49:51.075Z,97835.77
2022-09-26T20:52:56.387Z,97832.34
2022-09-26T20:56:04.034Z,97836.34
2022-09-26T20:59:09.386Z,97830.91
2022-09-26T21:02:27.111Z,97828.11
2022-09-26T21:05:32.674Z,97825.33
2022-09-26T21:08:38.330Z,97821.27
2022-09-26T21:11:43.982Z,97817.95
2022-09-26T21:14:49.289Z,97816.73
2022-09-26T21:17:56.257Z,97812.17
2022-09-26T21:21:06.751Z,97806.08
2022-09-26T21:24:24.150Z,97804.99
2022-09-26T21:27:30.503Z,97802.39
2022-09-26T21:30:36.204Z,97803.73
2022-09-26T21:33:41.907Z,97803.50
2022-09-26T21:36:47.800Z,97802.66
2022-09-26T21:39:53.413Z,97802.88
2022-09-26T21:43:01.919Z,97800.39
2022-09-26T21:46:08.387Z,97794.21
2022-09-26T21:49:13.776Z,97789.56
2022-09-26T21:52:24.649Z,97791.17
2022-09-26T21:55:33.714Z,97789.70
2022-09-26T21:58:41.941Z,97784.66
2022-09-26T22:01:47.332Z,97784.59
2022-09-26T22:04:53.077Z,97781.32
2022-09-26T22:07:59.026Z,97784.25
2022-09-26T22:11:04.486Z,97785.71
2022-09-26T22:14:10.032Z,97784.37
2022-09-26T22:17:15.381Z,97779.20
2022-09-26T22:20:20.831Z,97772.88
2022-09-26T22:23:26.264Z,97771.96
2022-09-26T22:26:31.630Z,97771.25
2022-09-26T22:29:36.928Z,97767.73
2022-09-26T22:32:42.431Z,97761.26
2022-09-26T22:35:50.417Z,97759.61
2022-09-26T22:38:55.889Z,97760.45
2022-09-26T22:42:01.392Z,97761.74
2022-09-26T22:45:07.933Z,97760.00
2022-09-26T22:48:13.293Z,97748.04
2022-09-26T22:51:19.512Z,97744.36
2022-09-26T22:54:23.397Z,97743.11
2022-09-26T22:57:29.249Z,97742.94
2022-09-26T23:00:34.602Z,97737.58
2022-09-26T23:03:41.974Z,97732.37
2022-09-26T23:06:47.304Z,97735.84
2022-09-26T23:09:52.653Z,97733.16
2022-09-26T23:12:58.313Z,97731.16
2022-09-26T23:16:07.904Z,97729.77
2022-09-26T23:19:13.244Z,97730.02
2022-09-26T23:22:18.677Z,97724.44
2022-09-26T23:25:24.127Z,97728.33
2022-09-26T23:28:29.778Z,97724.59
2022-09-26T23:31:35.157Z,97724.05
2022-09-26T23:34:40.579Z,97723.22
2022-09-26T23:37:45.905Z,97725.43
2022-09-26T23:40:51.299Z,97717.45
2022-09-26T23:43:57.044Z,97717.33
2022-09-26T23:47:04.326Z,97709.22
2022-09-26T23:50:10.619Z,97705.98
2022-09-26T23:53:16.908Z,97703.77
2022-09-26T23:56:22.347Z,97704.56
2022-09-26T23:59:27.804Z,97708.07
